»·PEaware :: SWA79 KSAN-KEGE

SWA79 :: KSAN-KEGE

FLIGHT INFORMATION

Flight Status: Arrived
Operator:
Southwest Airlines
More flights by this operator :: More flights under this callsign
Pilot: Steve F. (26981)
Aircraft: BOEING 737-800
(B738)
More flights by this aircraft type
Origin: KSAN San Diego Intl-Lindbergh
United States
Destination: KEGE Eagle Co Regl
United States
More flights between these airports :: More routes between these airports
Route: +ZZOOO2 MTBAL EED J236 TBC DVC JNC JESIE RLG
File this flight plan on PilotEdge
Remarks:
Altitude:
(Current/Filed)
39,000ft
Speed:
(Current/Filed)
430kts
Departed: 03-Jan-20 02:56 PM
Arrived: 03-Jan-20 04:58 PM
Distance/Time
Traveled:
646nm/2:01
Distance/Time
To Go:
Arrived

Flight Plot

Page will automatically refresh every two minutes.

Flight plan parsing failed; only flown route is shown


Map Options




Map Legend


Flown Route
Filed Route
Departure Airport
Arrival Airport
Navaid (VOR, NDB)
Fix

Horizontal Profiles

Position Reports

Time Latitude Longitude Heading Altitude Ground
Speed
03-Jan-20 14:28 32.733086 -117.195845 229 23ft 0kts
03-Jan-20 14:29 32.733086 -117.195845 229 23ft 0kts
03-Jan-20 14:30 32.733086 -117.195845 229 22ft 0kts
03-Jan-20 14:31 32.733086 -117.195845 229 22ft 0kts
03-Jan-20 14:32 32.733086 -117.195845 229 22ft 0kts
03-Jan-20 14:33 32.733086 -117.195845 229 22ft 0kts
03-Jan-20 14:34 32.733086 -117.195845 229 22ft 0kts
03-Jan-20 14:35 32.733086 -117.195845 229 22ft 0kts
03-Jan-20 14:36 32.733086 -117.195845 229 22ft 0kts
03-Jan-20 14:37 32.733086 -117.195845 229 22ft 0kts
03-Jan-20 14:38 32.733086 -117.195845 229 22ft 0kts
03-Jan-20 14:39 32.733086 -117.195845 229 22ft 0kts
03-Jan-20 14:40 32.733086 -117.195845 229 22ft 0kts
03-Jan-20 14:41 32.733086 -117.195845 229 22ft 0kts
03-Jan-20 14:42 32.733086 -117.195845 229 22ft 0kts
03-Jan-20 14:43 32.733086 -117.195845 229 22ft 0kts
03-Jan-20 14:44 32.733086 -117.195845 229 22ft 0kts
03-Jan-20 14:45 32.733086 -117.195845 229 22ft 0kts
03-Jan-20 14:46 32.733156 -117.195745 233 22ft 2kts
03-Jan-20 14:47 32.733279 -117.195250 273 22ft 0kts
03-Jan-20 14:48 32.733279 -117.195251 273 22ft 0kts
03-Jan-20 14:49 32.733279 -117.195252 273 22ft 0kts
03-Jan-20 14:50 32.733505 -117.195354 19 22ft 6kts
03-Jan-20 14:51 32.732677 -117.190092 108 22ft 24kts
03-Jan-20 14:52 32.730782 -117.181906 106 22ft 26kts
03-Jan-20 14:53 32.729627 -117.176501 68 22ft 0kts
03-Jan-20 14:54 32.729815 -117.175934 68 22ft 11kts
03-Jan-20 14:55 32.733955 -117.191252 286 24ft 149kts
03-Jan-20 14:56 32.748534 -117.248167 284 2874ft 194kts
03-Jan-20 14:57 32.741873 -117.315768 215 4544ft 256kts
03-Jan-20 14:58 32.675796 -117.295480 135 7226ft 275kts
03-Jan-20 14:59 32.631338 -117.220982 100 10032ft 290kts
03-Jan-20 15:00 32.620195 -117.117055 94 11464ft 353kts
03-Jan-20 15:01 32.609073 -116.995414 93 13567ft 381kts
03-Jan-20 15:02 32.610379 -116.868907 73 16042ft 388kts
03-Jan-20 15:03 32.663111 -116.764574 24 18407ft 372kts
03-Jan-20 15:04 32.757400 -116.711764 19 20658ft 378kts
03-Jan-20 15:05 32.855540 -116.663222 18 22741ft 385kts
03-Jan-20 15:06 32.955552 -116.613979 18 24461ft 394kts
03-Jan-20 15:07 33.057894 -116.562302 19 25996ft 404kts
03-Jan-20 15:08 33.162112 -116.507823 19 27395ft 413kts
03-Jan-20 15:09 33.268305 -116.452118 19 28668ft 421kts
03-Jan-20 15:10 33.375474 -116.392538 28 30080ft 428kts
03-Jan-20 15:11 33.457793 -116.285493 46 31545ft 443kts
03-Jan-20 15:12 33.529767 -116.165792 47 32883ft 442kts
03-Jan-20 15:13 33.601459 -116.045899 44 34207ft 437kts
03-Jan-20 15:14 33.681058 -115.938768 40 35485ft 428kts
03-Jan-20 15:15 33.760937 -115.833204 40 36599ft 425kts
03-Jan-20 15:16 33.839981 -115.728111 40 37334ft 426kts
03-Jan-20 15:17 33.919047 -115.623216 40 37352ft 421kts
03-Jan-20 15:18 33.997615 -115.518339 40 37356ft 420kts
03-Jan-20 15:19 34.075854 -115.413478 40 37356ft 421kts
03-Jan-20 15:20 34.154276 -115.308024 40 37355ft 420kts
03-Jan-20 15:21 34.232095 -115.203054 40 37352ft 420kts
03-Jan-20 15:22 34.309781 -115.097940 40 37355ft 418kts
03-Jan-20 15:23 34.387174 -114.992905 39 37352ft 418kts
03-Jan-20 15:24 34.464261 -114.887972 39 37348ft 416kts
03-Jan-20 15:25 34.541083 -114.783079 39 37344ft 416kts
03-Jan-20 15:26 34.618130 -114.677883 39 37337ft 416kts
03-Jan-20 15:27 34.694713 -114.572501 39 37338ft 416kts
03-Jan-20 15:28 34.768724 -114.464610 48 37338ft 426kts
03-Jan-20 15:29 34.826584 -114.336756 52 37335ft 431kts
03-Jan-20 15:30 34.883032 -114.208339 52 37340ft 430kts
03-Jan-20 15:31 34.939408 -114.079775 52 37347ft 430kts
03-Jan-20 15:32 34.995895 -113.951348 52 37356ft 428kts
03-Jan-20 15:33 35.051832 -113.823260 52 37367ft 428kts
03-Jan-20 15:34 35.107590 -113.694930 52 37368ft 428kts
03-Jan-20 15:35 35.163169 -113.566469 52 37368ft 428kts
03-Jan-20 15:36 35.218759 -113.437468 52 37369ft 428kts
03-Jan-20 15:37 35.274027 -113.308719 52 37377ft 428kts
03-Jan-20 15:38 35.329252 -113.179569 52 37387ft 427kts
03-Jan-20 15:39 35.384201 -113.050572 52 37397ft 428kts
03-Jan-20 15:40 35.439191 -112.920973 52 37404ft 427kts
03-Jan-20 15:41 35.493881 -112.791581 52 37407ft 427kts
03-Jan-20 15:42 35.548343 -112.662230 52 37410ft 427kts
03-Jan-20 15:43 35.602868 -112.532217 52 37411ft 427kts
03-Jan-20 15:44 35.657060 -112.402495 52 37413ft 427kts
03-Jan-20 15:45 35.711169 -112.272453 52 37415ft 427kts
03-Jan-20 15:46 35.765037 -112.142488 52 37418ft 427kts
03-Jan-20 15:47 35.818865 -112.012101 52 37418ft 427kts
03-Jan-20 15:48 35.872542 -111.881560 52 37418ft 427kts
03-Jan-20 15:49 35.926271 -111.750369 52 37416ft 427kts
03-Jan-20 15:50 35.979538 -111.619882 52 37417ft 424kts
03-Jan-20 15:51 36.032898 -111.489035 52 37416ft 427kts
03-Jan-20 15:52 36.085812 -111.357864 52 37416ft 427kts
03-Jan-20 15:53 36.147365 -111.236311 38 37415ft 406kts
03-Jan-20 15:54 36.222908 -111.133723 37 37413ft 403kts
03-Jan-20 15:55 36.298833 -111.031018 37 37413ft 403kts
03-Jan-20 15:56 36.374569 -110.928664 37 37412ft 402kts
03-Jan-20 15:57 36.450019 -110.826888 37 37412ft 400kts
03-Jan-20 15:58 36.525643 -110.724339 37 37413ft 401kts
03-Jan-20 15:59 36.600873 -110.621925 37 37416ft 401kts
03-Jan-20 16:00 36.675803 -110.519572 37 37418ft 400kts
03-Jan-20 16:01 36.750738 -110.416882 37 37421ft 401kts
03-Jan-20 16:02 36.825629 -110.313927 37 37424ft 401kts
03-Jan-20 16:03 36.900323 -110.210915 37 37427ft 400kts
03-Jan-20 16:04 36.975255 -110.107251 37 37441ft 401kts
03-Jan-20 16:05 37.050036 -110.003467 37 37447ft 401kts
03-Jan-20 16:06 37.124475 -109.899825 37 37451ft 400kts
03-Jan-20 16:07 37.199166 -109.795502 37 37448ft 400kts
03-Jan-20 16:08 37.273442 -109.691427 37 37450ft 401kts
03-Jan-20 16:09 37.347686 -109.587060 37 37449ft 402kts
03-Jan-20 16:10 37.422172 -109.482017 37 37455ft 402kts
03-Jan-20 16:11 37.496611 -109.376696 37 37456ft 402kts
03-Jan-20 16:12 37.570889 -109.271261 37 37453ft 402kts
03-Jan-20 16:13 37.645165 -109.165863 37 37445ft 402kts
03-Jan-20 16:14 37.719812 -109.059078 38 37443ft 412kts
03-Jan-20 16:15 37.797889 -108.954506 22 37438ft 392kts
03-Jan-20 16:16 37.899528 -108.926138 2 37437ft 373kts
03-Jan-20 16:17 38.002552 -108.911748 1 37442ft 371kts
03-Jan-20 16:19 38.105538 -108.899326 0 37445ft 371kts
03-Jan-20 16:20 38.208330 -108.887659 0 37447ft 371kts
03-Jan-20 16:21 38.311177 -108.876204 0 37452ft 371kts
03-Jan-20 16:22 38.414241 -108.864763 0 37452ft 371kts
03-Jan-20 16:23 38.517057 -108.853341 0 37452ft 371kts
03-Jan-20 16:24 38.620280 -108.841850 0 37453ft 371kts
03-Jan-20 16:25 38.723262 -108.830354 0 37452ft 371kts
03-Jan-20 16:26 38.826084 -108.818874 359 37450ft 372kts
03-Jan-20 16:27 38.929414 -108.807260 359 37450ft 372kts
03-Jan-20 16:28 39.032143 -108.791499 14 37446ft 383kts
03-Jan-20 16:29 39.109978 -108.685608 43 37446ft 424kts
03-Jan-20 16:30 39.177580 -108.560377 44 37449ft 425kts
03-Jan-20 16:31 39.243496 -108.433501 44 37447ft 426kts
03-Jan-20 16:32 39.309147 -108.306542 44 37444ft 425kts
03-Jan-20 16:33 39.374338 -108.179053 44 37439ft 426kts
03-Jan-20 16:34 39.439941 -108.049886 44 35911ft 426kts
03-Jan-20 16:35 39.504981 -107.921187 44 34114ft 427kts
03-Jan-20 16:35 39.559409 -107.813083 45 32613ft 431kts
03-Jan-20 16:37 39.636051 -107.660183 46 30519ft 438kts
03-Jan-20 16:38 39.702602 -107.526797 48 28716ft 441kts
03-Jan-20 16:38 39.758382 -107.414549 49 27217ft 446kts
03-Jan-20 16:40 39.835622 -107.258463 49 25116ft 434kts
03-Jan-20 16:41 39.900409 -107.127512 50 24397ft 429kts
03-Jan-20 16:41 39.954077 -107.017908 50 24389ft 429kts
03-Jan-20 16:43 40.033474 -106.876288 40 23502ft 387kts
03-Jan-20 16:43 40.092342 -106.792605 39 22130ft 368kts
03-Jan-20 16:44 40.160133 -106.695329 40 20325ft 356kts
03-Jan-20 16:46 40.140111 -106.554571 142 18209ft 400kts
03-Jan-20 16:46 40.063189 -106.492409 147 16714ft 382kts
03-Jan-20 16:47 39.969645 -106.458835 205 14908ft 345kts
03-Jan-20 16:48 39.885870 -106.513111 217 13953ft 314kts
03-Jan-20 16:49 39.821325 -106.574793 229 13943ft 266kts
03-Jan-20 16:50 39.761003 -106.626106 214 13324ft 252kts
03-Jan-20 16:51 39.699957 -106.649963 223 12065ft 201kts
03-Jan-20 16:52 39.673799 -106.699609 254 11442ft 154kts
03-Jan-20 16:53 39.663102 -106.754023 270 10668ft 164kts
03-Jan-20 16:54 39.655634 -106.811745 258 8802ft 161kts
03-Jan-20 16:55 39.647949 -106.869114 260 7076ft 154kts
03-Jan-20 16:56 39.642292 -106.920264 261 6543ft 68kts
03-Jan-20 16:57 39.640976 -106.927920 167 6543ft 0kts
03-Jan-20 16:58 39.640661 -106.927001 79 6543ft 16kts
03-Jan-20 16:59 39.640900 -106.924950 82 6543ft 0kts
03-Jan-20 17:00 39.640900 -106.924950 82 6543ft 0kts

Navigation Log

Ident Type
Flight plan parsing failed, navigation log unavailable